sensor_id;sensor_type;location;lat;lon;timestamp;pressure;altitude;pressure_sealevel;temperature;humidity
5905;BME280;2978;42.012;24.880;2022-11-14T00:01:29;99969.16;;;9.77;96.37
5905;BME280;2978;42.012;24.880;2022-11-14T00:03:54;99967.38;;;9.71;96.16
5905;BME280;2978;42.012;24.880;2022-11-14T00:06:20;99960.44;;;9.68;96.16
5905;BME280;2978;42.012;24.880;2022-11-14T00:08:45;99957.47;;;9.70;96.58
5905;BME280;2978;42.012;24.880;2022-11-14T00:11:10;99954.13;;;9.68;96.55
5905;BME280;2978;42.012;24.880;2022-11-14T00:13:36;99954.13;;;9.68;96.55
5905;BME280;2978;42.012;24.880;2022-11-14T00:16:01;99953.41;;;9.61;96.71
5905;BME280;2978;42.012;24.880;2022-11-14T00:18:27;99946.03;;;9.50;96.48
5905;BME280;2978;42.012;24.880;2022-11-14T00:20:52;99951.97;;;9.47;97.36
5905;BME280;2978;42.012;24.880;2022-11-14T00:23:19;99946.13;;;9.43;97.40
5905;BME280;2978;42.012;24.880;2022-11-14T00:25:45;99946.13;;;9.43;97.56
5905;BME280;2978;42.012;24.880;2022-11-14T00:28:11;99947.94;;;9.38;97.63
5905;BME280;2978;42.012;24.880;2022-11-14T00:30:36;99930.13;;;9.40;97.74
5905;BME280;2978;42.012;24.880;2022-11-14T00:33:02;99925.97;;;9.38;97.64
5905;BME280;2978;42.012;24.880;2022-11-14T00:35:27;99922.53;;;9.31;97.75
5905;BME280;2978;42.012;24.880;2022-11-14T00:37:53;99917.84;;;9.31;98.04
5905;BME280;2978;42.012;24.880;2022-11-14T00:40:18;99922.75;;;9.29;97.59
5905;BME280;2978;42.012;24.880;2022-11-14T00:42:44;99914.75;;;9.28;97.31
5905;BME280;2978;42.012;24.880;2022-11-14T00:45:09;99902.09;;;9.03;97.80
5905;BME280;2978;42.012;24.880;2022-11-14T00:47:35;99897.44;;;9.16;98.41
5905;BME280;2978;42.012;24.880;2022-11-14T00:50:01;99899.97;;;9.29;98.07
5905;BME280;2978;42.012;24.880;2022-11-14T00:52:27;99888.72;;;9.42;97.42
5905;BME280;2978;42.012;24.880;2022-11-14T00:54:52;99887.28;;;9.51;96.49
5905;BME280;2978;42.012;24.880;2022-11-14T00:57:18;99892.53;;;9.64;95.25
5905;BME280;2978;42.012;24.880;2022-11-14T00:59:43;99894.41;;;9.75;94.42
5905;BME280;2978;42.012;24.880;2022-11-14T01:02:09;99894.66;;;9.85;93.63
5905;BME280;2978;42.012;24.880;2022-11-14T01:04:34;99884.94;;;9.94;92.63
5905;BME280;2978;42.012;24.880;2022-11-14T01:07:00;99890.41;;;10.05;91.88
5905;BME280;2978;42.012;24.880;2022-11-14T01:09:25;99887.91;;;10.04;91.64
5905;BME280;2978;42.012;24.880;2022-11-14T01:11:50;99886.88;;;9.93;92.19
5905;BME280;2978;42.012;24.880;2022-11-14T01:14:16;99888.66;;;9.88;92.40
5905;BME280;2978;42.012;24.880;2022-11-14T01:16:41;99885.31;;;9.86;92.02
5905;BME280;2978;42.012;24.880;2022-11-14T01:19:07;99873.94;;;9.94;91.30
5905;BME280;2978;42.012;24.880;2022-11-14T01:21:33;99870.72;;;9.97;91.46
5905;BME280;2978;42.012;24.880;2022-11-14T01:23:58;99869.97;;;10.01;90.88
5905;BME280;2978;42.012;24.880;2022-11-14T01:26:24;99875.34;;;10.08;90.58
5905;BME280;2978;42.012;24.880;2022-11-14T01:28:49;99863.75;;;10.06;90.00
5905;BME280;2978;42.012;24.880;2022-11-14T01:31:19;99872.59;;;10.08;90.01
5905;BME280;2978;42.012;24.880;2022-11-14T01:33:48;99878.22;;;10.13;89.97
5905;BME280;2978;42.012;24.880;2022-11-14T01:36:14;99879.53;;;10.10;89.64
5905;BME280;2978;42.012;24.880;2022-11-14T01:38:40;99874.66;;;10.12;89.01
5905;BME280;2978;42.012;24.880;2022-11-14T01:41:05;99869.16;;;10.12;88.54
5905;BME280;2978;42.012;24.880;2022-11-14T01:43:33;99870.56;;;10.15;88.25
5905;BME280;2978;42.012;24.880;2022-11-14T01:51:30;99862.34;;;10.03;88.57
5905;BME280;2978;42.012;24.880;2022-11-14T01:54:00;99866.28;;;10.07;88.60
5905;BME280;2978;42.012;24.880;2022-11-14T01:56:31;99856.59;;;10.05;88.70
5905;BME280;2978;42.012;24.880;2022-11-14T01:59:02;99870.47;;;10.10;87.89
5905;BME280;2978;42.012;24.880;2022-11-14T02:01:30;99860.31;;;9.99;88.41
5905;BME280;2978;42.012;24.880;2022-11-14T02:03:58;99859.16;;;9.95;88.38
5905;BME280;2978;42.012;24.880;2022-11-14T02:06:28;99870.50;;;9.87;89.34
5905;BME280;2978;42.012;24.880;2022-11-14T02:08:55;99864.91;;;9.82;90.07
5905;BME280;2978;42.012;24.880;2022-11-14T02:11:22;99873.88;;;9.77;90.59
5905;BME280;2978;42.012;24.880;2022-11-14T02:13:48;99856.84;;;9.64;91.29
5905;BME280;2978;42.012;24.880;2022-11-14T02:16:14;99862.00;;;9.49;92.80
5905;BME280;2978;42.012;24.880;2022-11-14T02:18:39;99857.13;;;9.39;93.87
5905;BME280;2978;42.012;24.880;2022-11-14T02:21:05;99851.06;;;9.26;95.05
5905;BME280;2978;42.012;24.880;2022-11-14T02:23:31;99839.38;;;9.19;95.03
5905;BME280;2978;42.012;24.880;2022-11-14T02:25:57;99838.91;;;9.22;94.00
5905;BME280;2978;42.012;24.880;2022-11-14T02:28:24;99844.34;;;9.33;92.71
5905;BME280;2978;42.012;24.880;2022-11-14T02:30:49;99829.56;;;9.46;91.34
5905;BME280;2978;42.012;24.880;2022-11-14T02:33:15;99831.69;;;9.55;90.21
5905;BME280;2978;42.012;24.880;2022-11-14T02:35:41;99828.22;;;9.60;89.41
5905;BME280;2978;42.012;24.880;2022-11-14T02:38:06;99819.00;;;9.66;88.90
5905;BME280;2978;42.012;24.880;2022-11-14T02:40:32;99821.25;;;9.69;88.97
5905;BME280;2978;42.012;24.880;2022-11-14T02:42:57;99823.97;;;9.80;88.36
5905;BME280;2978;42.012;24.880;2022-11-14T02:45:23;99823.28;;;9.73;88.01
5905;BME280;2978;42.012;24.880;2022-11-14T02:47:49;99823.88;;;9.75;88.26
5905;BME280;2978;42.012;24.880;2022-11-14T02:50:15;99820.53;;;9.73;87.94
5905;BME280;2978;42.012;24.880;2022-11-14T02:52:40;99830.31;;;9.69;88.08
5905;BME280;2978;42.012;24.880;2022-11-14T02:55:06;99828.50;;;9.75;87.74
5905;BME280;2978;42.012;24.880;2022-11-14T02:57:31;99828.03;;;9.78;87.00
5905;BME280;2978;42.012;24.880;2022-11-14T02:59:57;99828.75;;;9.85;86.27
5905;BME280;2978;42.012;24.880;2022-11-14T03:02:22;99835.38;;;9.89;86.45
5905;BME280;2978;42.012;24.880;2022-11-14T03:04:47;99835.88;;;9.86;86.40
5905;BME280;2978;42.012;24.880;2022-11-14T03:07:13;99830.88;;;9.83;86.60
5905;BME280;2978;42.012;24.880;2022-11-14T03:09:38;99830.53;;;9.79;86.65
5905;BME280;2978;42.012;24.880;2022-11-14T03:12:04;99839.03;;;9.78;86.74
5905;BME280;2978;42.012;24.880;2022-11-14T03:14:30;99834.50;;;9.72;86.86
5905;BME280;2978;42.012;24.880;2022-11-14T03:16:56;99843.22;;;9.69;86.83
5905;BME280;2978;42.012;24.880;2022-11-14T03:19:21;99839.63;;;9.68;86.64
5905;BME280;2978;42.012;24.880;2022-11-14T03:21:47;99838.00;;;9.67;86.74
5905;BME280;2978;42.012;24.880;2022-11-14T03:24:12;99836.94;;;9.57;86.88
5905;BME280;2978;42.012;24.880;2022-11-14T03:26:38;99837.03;;;9.62;87.17
5905;BME280;2978;42.012;24.880;2022-11-14T03:29:03;99848.72;;;9.57;87.39
5905;BME280;2978;42.012;24.880;2022-11-14T03:31:29;99842.88;;;9.54;87.65
5905;BME280;2978;42.012;24.880;2022-11-14T03:33:54;99853.06;;;9.53;87.42
5905;BME280;2978;42.012;24.880;2022-11-14T03:36:20;99850.31;;;9.53;87.36
5905;BME280;2978;42.012;24.880;2022-11-14T03:38:45;99859.84;;;9.51;87.31
5905;BME280;2978;42.012;24.880;2022-11-14T03:41:11;99866.66;;;9.48;87.82
5905;BME280;2978;42.012;24.880;2022-11-14T03:43:36;99865.34;;;9.51;90.23
5905;BME280;2978;42.012;24.880;2022-11-14T03:46:02;99862.13;;;9.42;92.22
5905;BME280;2978;42.012;24.880;2022-11-14T03:48:28;99862.16;;;9.31;93.72
5905;BME280;2978;42.012;24.880;2022-11-14T03:50:53;99859.50;;;9.24;94.19
5905;BME280;2978;42.012;24.880;2022-11-14T03:53:19;99851.53;;;9.23;94.27
5905;BME280;2978;42.012;24.880;2022-11-14T03:55:45;99846.03;;;9.23;94.35
5905;BME280;2978;42.012;24.880;2022-11-14T03:58:10;99865.50;;;9.21;94.32
5905;BME280;2978;42.012;24.880;2022-11-14T04:00:36;99857.75;;;9.06;94.93
5905;BME280;2978;42.012;24.880;2022-11-14T04:03:02;99864.19;;;9.00;95.67
5905;BME280;2978;42.012;24.880;2022-11-14T04:05:27;99857.03;;;8.99;96.25
5905;BME280;2978;42.012;24.880;2022-11-14T04:07:53;99854.28;;;8.99;96.82
5905;BME280;2978;42.012;24.880;2022-11-14T04:10:18;99853.31;;;8.82;96.69
5905;BME280;2978;42.012;24.880;2022-11-14T04:12:48;99841.16;;;8.78;96.29
5905;BME280;2978;42.012;24.880;2022-11-14T04:15:14;99839.47;;;8.77;94.58
5905;BME280;2978;42.012;24.880;2022-11-14T04:17:39;99844.63;;;8.85;92.21
5905;BME280;2978;42.012;24.880;2022-11-14T04:20:05;99846.16;;;8.93;91.49
5905;BME280;2978;42.012;24.880;2022-11-14T04:22:31;99839.88;;;8.92;91.15
5905;BME280;2978;42.012;24.880;2022-11-14T04:24:56;99842.72;;;8.97;90.53
5905;BME280;2978;42.012;24.880;2022-11-14T04:27:21;99831.25;;;9.00;89.97
5905;BME280;2978;42.012;24.880;2022-11-14T04:29:47;99839.13;;;9.08;89.60
5905;BME280;2978;42.012;24.880;2022-11-14T04:32:12;99839.25;;;9.13;89.02
5905;BME280;2978;42.012;24.880;2022-11-14T04:34:38;99834.94;;;9.18;88.62
5905;BME280;2978;42.012;24.880;2022-11-14T04:37:03;99837.22;;;9.21;88.15
5905;BME280;2978;42.012;24.880;2022-11-14T04:39:29;99841.03;;;9.20;87.94
5905;BME280;2978;42.012;24.880;2022-11-14T04:41:54;99838.19;;;9.03;88.16
5905;BME280;2978;42.012;24.880;2022-11-14T04:44:19;99837.97;;;9.04;88.31
5905;BME280;2978;42.012;24.880;2022-11-14T04:46:45;99841.63;;;8.98;88.46
5905;BME280;2978;42.012;24.880;2022-11-14T04:49:10;99834.75;;;8.96;88.46
5905;BME280;2978;42.012;24.880;2022-11-14T04:51:36;99846.88;;;9.00;88.62
5905;BME280;2978;42.012;24.880;2022-11-14T04:54:01;99843.66;;;8.91;88.64
5905;BME280;2978;42.012;24.880;2022-11-14T04:56:26;99830.75;;;8.80;89.06
5905;BME280;2978;42.012;24.880;2022-11-14T04:58:53;99835.19;;;8.81;89.08
5905;BME280;2978;42.012;24.880;2022-11-14T05:01:19;99847.47;;;8.79;89.33
5905;BME280;2978;42.012;24.880;2022-11-14T05:03:45;99844.03;;;8.83;88.72
5905;BME280;2978;42.012;24.880;2022-11-14T05:06:11;99841.28;;;8.95;88.42
5905;BME280;2978;42.012;24.880;2022-11-14T05:08:36;99837.25;;;8.97;88.29
5905;BME280;2978;42.012;24.880;2022-11-14T05:11:02;99849.75;;;9.05;88.33
5905;BME280;2978;42.012;24.880;2022-11-14T05:13:28;99861.78;;;9.16;87.16
5905;BME280;2978;42.012;24.880;2022-11-14T05:15:57;99855.13;;;9.12;87.22
5905;BME280;2978;42.012;24.880;2022-11-14T05:18:23;99861.06;;;8.97;87.30
5905;BME280;2978;42.012;24.880;2022-11-14T05:20:48;99874.56;;;8.87;87.74
5905;BME280;2978;42.012;24.880;2022-11-14T05:23:21;99874.31;;;9.00;87.23
5905;BME280;2978;42.012;24.880;2022-11-14T05:26:04;99865.13;;;8.94;87.14
5905;BME280;2978;42.012;24.880;2022-11-14T05:28:30;99873.00;;;9.02;87.01
5905;BME280;2978;42.012;24.880;2022-11-14T05:31:04;99878.72;;;9.13;86.81
5905;BME280;2978;42.012;24.880;2022-11-14T05:33:30;99873.72;;;9.09;86.48
5905;BME280;2978;42.012;24.880;2022-11-14T05:36:10;99873.59;;;9.16;86.48
5905;BME280;2978;42.012;24.880;2022-11-14T05:38:36;99871.81;;;9.22;86.18
5905;BME280;2978;42.012;24.880;2022-11-14T05:41:07;99875.03;;;9.19;86.13
5905;BME280;2978;42.012;24.880;2022-11-14T05:43:33;99880.03;;;9.22;86.05
5905;BME280;2978;42.012;24.880;2022-11-14T05:46:00;99873.47;;;9.23;85.44
5905;BME280;2978;42.012;24.880;2022-11-14T05:48:25;99876.94;;;9.30;84.83
5905;BME280;2978;42.012;24.880;2022-11-14T05:50:55;99879.22;;;9.33;84.89
5905;BME280;2978;42.012;24.880;2022-11-14T05:53:21;99880.28;;;9.32;84.25
5905;BME280;2978;42.012;24.880;2022-11-14T05:55:46;99881.25;;;9.26;84.66
5905;BME280;2978;42.012;24.880;2022-11-14T05:58:21;99888.03;;;9.12;85.32
5905;BME280;2978;42.012;24.880;2022-11-14T06:00:47;99885.03;;;9.25;84.82
5905;BME280;2978;42.012;24.880;2022-11-14T06:03:12;99869.78;;;9.17;84.38
5905;BME280;2978;42.012;24.880;2022-11-14T06:05:39;99893.03;;;9.26;84.64
5905;BME280;2978;42.012;24.880;2022-11-14T06:08:05;99881.00;;;9.27;84.37
5905;BME280;2978;42.012;24.880;2022-11-14T06:10:33;99901.41;;;9.43;84.52
5905;BME280;2978;42.012;24.880;2022-11-14T06:12:58;99902.34;;;9.48;84.49
5905;BME280;2978;42.012;24.880;2022-11-14T06:15:24;99893.97;;;9.55;83.31
5905;BME280;2978;42.012;24.880;2022-11-14T06:17:51;99888.59;;;9.60;83.29
5905;BME280;2978;42.012;24.880;2022-11-14T06:20:17;99894.81;;;9.67;82.65
5905;BME280;2978;42.012;24.880;2022-11-14T06:22:42;99895.66;;;9.67;82.31
5905;BME280;2978;42.012;24.880;2022-11-14T06:25:08;99897.91;;;9.70;82.82
5905;BME280;2978;42.012;24.880;2022-11-14T06:27:34;99891.06;;;9.73;82.64
5905;BME280;2978;42.012;24.880;2022-11-14T06:29:59;99896.00;;;9.71;81.93
5905;BME280;2978;42.012;24.880;2022-11-14T06:32:25;99885.56;;;9.73;81.74
5905;BME280;2978;42.012;24.880;2022-11-14T06:34:50;99887.97;;;9.81;81.45
5905;BME280;2978;42.012;24.880;2022-11-14T06:37:15;99887.47;;;9.84;81.44
5905;BME280;2978;42.012;24.880;2022-11-14T06:39:41;99885.81;;;9.83;81.39
5905;BME280;2978;42.012;24.880;2022-11-14T06:42:06;99881.63;;;9.92;80.76
5905;BME280;2978;42.012;24.880;2022-11-14T06:44:32;99883.88;;;9.95;80.84
5905;BME280;2978;42.012;24.880;2022-11-14T06:46:57;99879.06;;;10.02;80.38
5905;BME280;2978;42.012;24.880;2022-11-14T06:49:23;99893.78;;;9.96;80.36
5905;BME280;2978;42.012;24.880;2022-11-14T06:51:49;99878.28;;;9.90;80.23
5905;BME280;2978;42.012;24.880;2022-11-14T06:54:15;99878.03;;;9.91;80.04
5905;BME280;2978;42.012;24.880;2022-11-14T06:56:40;99868.03;;;9.74;80.94
5905;BME280;2978;42.012;24.880;2022-11-14T06:59:06;99882.25;;;9.71;80.88
5905;BME280;2978;42.012;24.880;2022-11-14T07:01:31;99866.50;;;9.66;81.29
5905;BME280;2978;42.012;24.880;2022-11-14T07:03:57;99878.19;;;9.85;80.85
5905;BME280;2978;42.012;24.880;2022-11-14T07:06:25;99865.44;;;10.07;80.20
5905;BME280;2978;42.012;24.880;2022-11-14T07:08:52;99880.84;;;10.19;78.79
5905;BME280;2978;42.012;24.880;2022-11-14T07:11:20;99873.31;;;10.43;78.67
5905;BME280;2978;42.012;24.880;2022-11-14T07:14:00;99887.09;;;10.76;76.86
5905;BME280;2978;42.012;24.880;2022-11-14T07:16:32;99896.09;;;10.88;77.26
5905;BME280;2978;42.012;24.880;2022-11-14T07:19:00;99895.78;;;11.01;80.94
5905;BME280;2978;42.012;24.880;2022-11-14T07:21:27;99907.94;;;11.05;83.01
5905;BME280;2978;42.012;24.880;2022-11-14T07:23:54;99901.31;;;11.01;83.94
5905;BME280;2978;42.012;24.880;2022-11-14T07:26:20;99899.97;;;10.87;85.42
5905;BME280;2978;42.012;24.880;2022-11-14T07:28:45;99895.44;;;10.81;85.99
5905;BME280;2978;42.012;24.880;2022-11-14T07:31:15;99905.97;;;10.84;86.67
5905;BME280;2978;42.012;24.880;2022-11-14T07:33:42;99913.47;;;10.89;86.33
5905;BME280;2978;42.012;24.880;2022-11-14T07:36:08;99906.59;;;10.91;86.42
5905;BME280;2978;42.012;24.880;2022-11-14T07:38:35;99895.28;;;10.88;86.34
5905;BME280;2978;42.012;24.880;2022-11-14T07:41:08;99904.44;;;10.93;86.19
5905;BME280;2978;42.012;24.880;2022-11-14T07:43:34;99895.69;;;10.80;86.08
5905;BME280;2978;42.012;24.880;2022-11-14T07:46:01;99899.28;;;10.80;86.34
5905;BME280;2978;42.012;24.880;2022-11-14T07:48:27;99893.88;;;10.85;86.16
5905;BME280;2978;42.012;24.880;2022-11-14T07:50:57;99888.44;;;10.90;86.39
5905;BME280;2978;42.012;24.880;2022-11-14T07:53:23;99888.44;;;10.90;85.60
5905;BME280;2978;42.012;24.880;2022-11-14T07:55:48;99897.44;;;11.02;85.81
5905;BME280;2978;42.012;24.880;2022-11-14T07:58:14;99890.38;;;11.06;84.59
5905;BME280;2978;42.012;24.880;2022-11-14T08:00:39;99898.97;;;11.10;84.14
5905;BME280;2978;42.012;24.880;2022-11-14T08:03:08;99891.53;;;11.10;83.59
5905;BME280;2978;42.012;24.880;2022-11-14T08:05:34;99896.53;;;11.13;83.51
5905;BME280;2978;42.012;24.880;2022-11-14T08:07:59;99902.13;;;11.18;84.06
5905;BME280;2978;42.012;24.880;2022-11-14T08:10:25;99903.84;;;11.24;83.57
5905;BME280;2978;42.012;24.880;2022-11-14T08:13:04;99898.94;;;11.26;82.78
5905;BME280;2978;42.012;24.880;2022-11-14T08:15:30;99891.84;;;11.30;82.65
5905;BME280;2978;42.012;24.880;2022-11-14T08:17:57;99906.78;;;11.34;81.89
5905;BME280;2978;42.012;24.880;2022-11-14T08:20:23;99898.00;;;11.38;80.98
5905;BME280;2978;42.012;24.880;2022-11-14T08:22:48;99890.94;;;11.42;81.17
5905;BME280;2978;42.012;24.880;2022-11-14T08:25:14;99907.25;;;11.48;81.34
5905;BME280;2978;42.012;24.880;2022-11-14T08:27:39;99895.72;;;11.51;80.74
5905;BME280;2978;42.012;24.880;2022-11-14T08:30:06;99892.03;;;11.62;80.58
5905;BME280;2978;42.012;24.880;2022-11-14T08:32:31;99886.44;;;11.74;80.87
5905;BME280;2978;42.012;24.880;2022-11-14T08:34:57;99884.72;;;11.68;80.92
5905;BME280;2978;42.012;24.880;2022-11-14T08:37:22;99893.06;;;11.73;80.80
5905;BME280;2978;42.012;24.880;2022-11-14T08:39:48;99895.41;;;11.86;81.27
5905;BME280;2978;42.012;24.880;2022-11-14T08:42:13;99881.91;;;11.84;81.17
5905;BME280;2978;42.012;24.880;2022-11-14T08:44:39;99876.66;;;11.83;81.08
5905;BME280;2978;42.012;24.880;2022-11-14T08:47:04;99881.53;;;11.97;80.94
5905;BME280;2978;42.012;24.880;2022-11-14T08:49:29;99877.78;;;12.08;80.46
5905;BME280;2978;42.012;24.880;2022-11-14T08:51:55;99881.66;;;12.07;80.56
5905;BME280;2978;42.012;24.880;2022-11-14T08:54:21;99875.03;;;12.08;80.26
5905;BME280;2978;42.012;24.880;2022-11-14T08:56:46;99870.16;;;12.15;80.23
5905;BME280;2978;42.012;24.880;2022-11-14T08:59:11;99864.47;;;12.22;79.77
5905;BME280;2978;42.012;24.880;2022-11-14T09:01:37;99863.88;;;12.20;80.04
5905;BME280;2978;42.012;24.880;2022-11-14T09:04:02;99862.78;;;12.21;80.15
5905;BME280;2978;42.012;24.880;2022-11-14T09:06:29;99860.81;;;12.16;79.48
5905;BME280;2978;42.012;24.880;2022-11-14T09:08:54;99866.66;;;11.98;80.31
5905;BME280;2978;42.012;24.880;2022-11-14T09:11:20;99870.38;;;12.09;80.35
5905;BME280;2978;42.012;24.880;2022-11-14T09:13:45;99859.19;;;12.20;79.40
5905;BME280;2978;42.012;24.880;2022-11-14T09:16:11;99857.38;;;12.31;79.57
5905;BME280;2978;42.012;24.880;2022-11-14T09:18:36;99857.19;;;12.37;79.56
5905;BME280;2978;42.012;24.880;2022-11-14T09:21:04;99850.63;;;12.43;79.00
5905;BME280;2978;42.012;24.880;2022-11-14T09:23:32;99850.31;;;12.40;79.61
5905;BME280;2978;42.012;24.880;2022-11-14T09:25:57;99855.91;;;12.50;79.37
5905;BME280;2978;42.012;24.880;2022-11-14T09:28:23;99848.53;;;12.56;79.02
5905;BME280;2978;42.012;24.880;2022-11-14T09:30:49;99848.44;;;12.72;78.82
5905;BME280;2978;42.012;24.880;2022-11-14T09:33:15;99845.22;;;12.85;78.49
5905;BME280;2978;42.012;24.880;2022-11-14T09:35:40;99838.78;;;13.06;78.19
5905;BME280;2978;42.012;24.880;2022-11-14T09:38:08;99835.28;;;13.16;76.99
5905;BME280;2978;42.012;24.880;2022-11-14T09:43:27;99825.91;;;13.69;75.72
5905;BME280;2978;42.012;24.880;2022-11-14T09:46:00;99815.72;;;13.79;75.19
5905;BME280;2978;42.012;24.880;2022-11-14T09:48:27;99822.72;;;13.97;74.17
5905;BME280;2978;42.012;24.880;2022-11-14T09:51:29;99813.34;;;14.03;74.25
5905;BME280;2978;42.012;24.880;2022-11-14T09:54:05;99820.59;;;14.19;73.57
5905;BME280;2978;42.012;24.880;2022-11-14T09:56:34;99810.66;;;14.28;73.38
5905;BME280;2978;42.012;24.880;2022-11-14T09:59:00;99807.38;;;14.36;72.69
5905;BME280;2978;42.012;24.880;2022-11-14T10:12:43;99787.19;;;13.58;76.41
5905;BME280;2978;42.012;24.880;2022-11-14T10:20:45;99778.94;;;13.69;76.92
5905;BME280;2978;42.012;24.880;2022-11-14T10:23:22;99770.63;;;13.69;77.34
5905;BME280;2978;42.012;24.880;2022-11-14T10:31:32;99754.59;;;13.66;78.14
5905;BME280;2978;42.012;24.880;2022-11-14T10:34:22;99752.97;;;13.65;78.44
5905;BME280;2978;42.012;24.880;2022-11-14T10:37:01;99749.88;;;13.56;79.45
5905;BME280;2978;42.012;24.880;2022-11-14T10:39:36;99742.38;;;13.51;80.08
5905;BME280;2978;42.012;24.880;2022-11-14T10:42:12;99744.94;;;13.58;80.27
5905;BME280;2978;42.012;24.880;2022-11-14T10:48:06;99732.47;;;13.61;80.13
5905;BME280;2978;42.012;24.880;2022-11-14T10:50:43;99724.19;;;13.55;80.41
5905;BME280;2978;42.012;24.880;2022-11-14T10:53:21;99721.72;;;13.69;80.05
5905;BME280;2978;42.012;24.880;2022-11-14T10:55:49;99703.78;;;13.72;79.43
5905;BME280;2978;42.012;24.880;2022-11-14T10:58:15;99716.50;;;13.83;79.17
5905;BME280;2978;42.012;24.880;2022-11-14T11:00:41;99716.00;;;13.91;79.32
5905;BME280;2978;42.012;24.880;2022-11-14T11:03:06;99712.94;;;13.87;79.52
5905;BME280;2978;42.012;24.880;2022-11-14T11:05:50;99720.97;;;13.99;79.12
5905;BME280;2978;42.012;24.880;2022-11-14T11:08:22;99717.66;;;14.02;78.80
5905;BME280;2978;42.012;24.880;2022-11-14T11:11:13;99711.59;;;14.10;78.78
5905;BME280;2978;42.012;24.880;2022-11-14T11:13:56;99703.03;;;14.16;78.81
5905;BME280;2978;42.012;24.880;2022-11-14T11:16:23;99705.56;;;14.28;78.50
5905;BME280;2978;42.012;24.880;2022-11-14T11:18:50;99689.22;;;14.26;78.32
5905;BME280;2978;42.012;24.880;2022-11-14T11:21:17;99693.13;;;14.35;77.89
5905;BME280;2978;42.012;24.880;2022-11-14T11:23:54;99687.56;;;14.40;77.93
5905;BME280;2978;42.012;24.880;2022-11-14T11:26:31;99685.09;;;14.44;77.48
5905;BME280;2978;42.012;24.880;2022-11-14T11:29:16;99684.56;;;14.47;77.38
5905;BME280;2978;42.012;24.880;2022-11-14T11:31:53;99691.16;;;14.51;77.07
5905;BME280;2978;42.012;24.880;2022-11-14T11:34:31;99682.59;;;14.52;77.14
5905;BME280;2978;42.012;24.880;2022-11-14T11:40:01;99666.25;;;14.56;77.11
5905;BME280;2978;42.012;24.880;2022-11-14T11:42:33;99674.53;;;14.61;76.81
5905;BME280;2978;42.012;24.880;2022-11-14T11:45:05;99665.69;;;14.54;76.53
5905;BME280;2978;42.012;24.880;2022-11-14T11:47:38;99670.69;;;14.57;76.91
5905;BME280;2978;42.012;24.880;2022-11-14T11:50:13;99665.72;;;14.64;76.50
5905;BME280;2978;42.012;24.880;2022-11-14T11:52:56;99669.28;;;14.75;75.99
5905;BME280;2978;42.012;24.880;2022-11-14T11:55:26;99667.59;;;14.79;75.44
5905;BME280;2978;42.012;24.880;2022-11-14T11:58:09;99660.66;;;14.86;75.39
5905;BME280;2978;42.012;24.880;2022-11-14T12:00:37;99665.09;;;14.87;75.13
5905;BME280;2978;42.012;24.880;2022-11-14T12:03:04;99653.22;;;14.82;75.15
5905;BME280;2978;42.012;24.880;2022-11-14T12:05:42;99664.00;;;14.88;75.65
5905;BME280;2978;42.012;24.880;2022-11-14T12:08:19;99655.13;;;14.91;75.44
5905;BME280;2978;42.012;24.880;2022-11-14T12:10:48;99651.25;;;14.87;75.26
5905;BME280;2978;42.012;24.880;2022-11-14T12:19:00;99647.94;;;14.90;75.11
5905;BME280;2978;42.012;24.880;2022-11-14T12:21:53;99647.38;;;14.88;75.20
5905;BME280;2978;42.012;24.880;2022-11-14T12:27:57;99635.75;;;14.86;75.28
5905;BME280;2978;42.012;24.880;2022-11-14T12:30:27;99638.53;;;14.81;75.17
5905;BME280;2978;42.012;24.880;2022-11-14T12:33:07;99642.41;;;14.85;75.43
5905;BME280;2978;42.012;24.880;2022-11-14T12:35:35;99635.19;;;14.84;75.03
5905;BME280;2978;42.012;24.880;2022-11-14T12:38:04;99626.88;;;14.89;75.25
5905;BME280;2978;42.012;24.880;2022-11-14T12:40:39;99626.88;;;14.89;74.73
5905;BME280;2978;42.012;24.880;2022-11-14T12:50:52;99622.69;;;14.97;74.95
5905;BME280;2978;42.012;24.880;2022-11-14T13:15:33;99614.94;;;14.99;75.82
5905;BME280;2978;42.012;24.880;2022-11-14T13:18:22;99611.06;;;15.00;76.12
5905;BME280;2978;42.012;24.880;2022-11-14T13:24:05;99607.47;;;14.99;76.54
5905;BME280;2978;42.012;24.880;2022-11-14T13:28:57;99604.13;;;15.02;76.93
5905;BME280;2978;42.012;24.880;2022-11-14T13:33:57;99601.66;;;15.01;77.23
5905;BME280;2978;42.012;24.880;2022-11-14T13:36:43;99612.16;;;15.04;76.91
5905;BME280;2978;42.012;24.880;2022-11-14T13:39:22;99607.47;;;14.99;77.09
5905;BME280;2978;42.012;24.880;2022-11-14T13:47:47;99603.09;;;14.83;77.51
5905;BME280;2978;42.012;24.880;2022-11-14T13:50:28;99600.88;;;14.85;77.55
5905;BME280;2978;42.012;24.880;2022-11-14T13:52:54;99605.34;;;14.76;77.67
5905;BME280;2978;42.012;24.880;2022-11-14T14:10:14;99593.22;;;14.52;78.97
5905;BME280;2978;42.012;24.880;2022-11-14T14:13:17;99593.78;;;14.44;79.41
5905;BME280;2978;42.012;24.880;2022-11-14T14:16:09;99594.91;;;14.43;79.72
5905;BME280;2978;42.012;24.880;2022-11-14T14:24:33;99596.03;;;14.27;81.06
5905;BME280;2978;42.012;24.880;2022-11-14T14:32:14;99593.81;;;14.19;82.09
5905;BME280;2978;42.012;24.880;2022-11-14T14:34:40;99587.16;;;14.15;81.94
5905;BME280;2978;42.012;24.880;2022-11-14T14:39:40;99583.84;;;14.13;82.16
5905;BME280;2978;42.012;24.880;2022-11-14T14:42:20;99590.50;;;14.12;82.26
5905;BME280;2978;42.012;24.880;2022-11-14T14:44:47;99588.25;;;14.09;82.81
5905;BME280;2978;42.012;24.880;2022-11-14T14:50:01;99600.44;;;14.03;83.04
5905;BME280;2978;42.012;24.880;2022-11-14T14:52:35;99595.72;;;13.83;84.22
5905;BME280;2978;42.012;24.880;2022-11-14T14:55:05;99592.13;;;13.83;84.37
5905;BME280;2978;42.012;24.880;2022-11-14T14:57:33;99586.31;;;13.79;84.51
5905;BME280;2978;42.012;24.880;2022-11-14T15:00:19;99589.66;;;13.76;84.91
5905;BME280;2978;42.012;24.880;2022-11-14T15:02:46;99587.72;;;13.72;84.91
5905;BME280;2978;42.012;24.880;2022-11-14T15:05:26;99576.66;;;13.67;85.11
5905;BME280;2978;42.012;24.880;2022-11-14T15:07:57;99590.47;;;13.67;85.05
5905;BME280;2978;42.012;24.880;2022-11-14T15:10:28;99591.56;;;13.55;85.43
5905;BME280;2978;42.012;24.880;2022-11-14T15:12:56;99586.84;;;13.46;85.67
5905;BME280;2978;42.012;24.880;2022-11-14T15:15:23;99581.00;;;13.27;86.63
5905;BME280;2978;42.012;24.880;2022-11-14T15:17:53;99583.47;;;13.19;86.56
5905;BME280;2978;42.012;24.880;2022-11-14T15:20:29;99593.09;;;13.11;87.12
5905;BME280;2978;42.012;24.880;2022-11-14T15:25:39;99585.00;;;12.90;88.02
5905;BME280;2978;42.012;24.880;2022-11-14T15:28:14;99589.69;;;12.89;88.53